sensor_id;sensor_type;location;lat;lon;timestamp;P1;durP1;ratioP1;P2;durP2;ratioP2
14153;SDS011;7157;53.144;7.570;2022-09-13T00:00:19;16.67;;;8.93;;
14153;SDS011;7157;53.144;7.570;2022-09-13T00:10:23;17.13;;;8.80;;
14153;SDS011;7157;53.144;7.570;2022-09-13T00:20:27;16.10;;;9.63;;
14153;SDS011;7157;53.144;7.570;2022-09-13T00:30:31;17.27;;;9.75;;
14153;SDS011;7157;53.144;7.570;2022-09-13T00:40:36;17.05;;;10.35;;
14153;SDS011;7157;53.144;7.570;2022-09-13T00:50:40;18.35;;;10.32;;
14153;SDS011;7157;53.144;7.570;2022-09-13T01:00:47;18.95;;;10.13;;
14153;SDS011;7157;53.144;7.570;2022-09-13T01:10:52;18.40;;;9.60;;
14153;SDS011;7157;53.144;7.570;2022-09-13T01:21:13;15.75;;;9.32;;
14153;SDS011;7157;53.144;7.570;2022-09-13T01:31:39;15.63;;;8.17;;
14153;SDS011;7157;53.144;7.570;2022-09-13T01:41:52;15.50;;;8.18;;
14153;SDS011;7157;53.144;7.570;2022-09-13T01:52:07;13.13;;;7.65;;
14153;SDS011;7157;53.144;7.570;2022-09-13T02:02:18;15.65;;;7.47;;
14153;SDS011;7157;53.144;7.570;2022-09-13T02:12:27;15.80;;;7.20;;
14153;SDS011;7157;53.144;7.570;2022-09-13T02:22:35;14.50;;;7.07;;
14153;SDS011;7157;53.144;7.570;2022-09-13T02:32:44;11.67;;;6.70;;
14153;SDS011;7157;53.144;7.570;2022-09-13T02:42:51;10.13;;;6.03;;
14153;SDS011;7157;53.144;7.570;2022-09-13T02:53:03;8.07;;;5.10;;
14153;SDS011;7157;53.144;7.570;2022-09-13T03:03:13;12.40;;;5.65;;
14153;SDS011;7157;53.144;7.570;2022-09-13T03:13:26;9.93;;;5.50;;
14153;SDS011;7157;53.144;7.570;2022-09-13T03:23:49;9.70;;;5.87;;
14153;SDS011;7157;53.144;7.570;2022-09-13T03:34:06;12.43;;;6.00;;
14153;SDS011;7157;53.144;7.570;2022-09-13T03:44:12;9.80;;;6.00;;
14153;SDS011;7157;53.144;7.570;2022-09-13T03:54:18;13.43;;;6.07;;
14153;SDS011;7157;53.144;7.570;2022-09-13T04:04:23;12.18;;;6.10;;
14153;SDS011;7157;53.144;7.570;2022-09-13T04:14:28;13.00;;;6.32;;
14153;SDS011;7157;53.144;7.570;2022-09-13T04:24:31;14.13;;;6.90;;
14153;SDS011;7157;53.144;7.570;2022-09-13T04:34:35;12.57;;;7.28;;
14153;SDS011;7157;53.144;7.570;2022-09-13T04:44:38;12.27;;;7.50;;
14153;SDS011;7157;53.144;7.570;2022-09-13T04:54:42;19.55;;;8.50;;
14153;SDS011;7157;53.144;7.570;2022-09-13T05:04:45;18.17;;;9.25;;
14153;SDS011;7157;53.144;7.570;2022-09-13T05:14:49;16.48;;;9.23;;
14153;SDS011;7157;53.144;7.570;2022-09-13T05:24:51;15.43;;;8.93;;
14153;SDS011;7157;53.144;7.570;2022-09-13T05:34:55;19.15;;;8.93;;
14153;SDS011;7157;53.144;7.570;2022-09-13T05:44:58;19.35;;;9.38;;
14153;SDS011;7157;53.144;7.570;2022-09-13T05:55:03;19.50;;;10.30;;
14153;SDS011;7157;53.144;7.570;2022-09-13T06:05:06;19.90;;;9.70;;
14153;SDS011;7157;53.144;7.570;2022-09-13T06:15:12;26.40;;;11.85;;
14153;SDS011;7157;53.144;7.570;2022-09-13T06:25:15;26.77;;;12.05;;
14153;SDS011;7157;53.144;7.570;2022-09-13T06:35:19;23.25;;;10.50;;
14153;SDS011;7157;53.144;7.570;2022-09-13T06:45:22;16.95;;;7.40;;
14153;SDS011;7157;53.144;7.570;2022-09-13T06:55:26;8.40;;;3.42;;
14153;SDS011;7157;53.144;7.570;2022-09-13T07:05:29;6.78;;;2.05;;
14153;SDS011;7157;53.144;7.570;2022-09-13T07:15:36;7.55;;;1.60;;
14153;SDS011;7157;53.144;7.570;2022-09-13T07:25:39;5.53;;;1.40;;
14153;SDS011;7157;53.144;7.570;2022-09-13T07:35:43;8.57;;;1.67;;
14153;SDS011;7157;53.144;7.570;2022-09-13T07:45:45;11.90;;;1.77;;
14153;SDS011;7157;53.144;7.570;2022-09-13T07:55:49;7.38;;;1.50;;
14153;SDS011;7157;53.144;7.570;2022-09-13T08:05:52;7.10;;;1.30;;
14153;SDS011;7157;53.144;7.570;2022-09-13T08:15:56;5.80;;;1.30;;
14153;SDS011;7157;53.144;7.570;2022-09-13T08:26:02;7.43;;;0.80;;
14153;SDS011;7157;53.144;7.570;2022-09-13T08:36:07;3.60;;;0.75;;
14153;SDS011;7157;53.144;7.570;2022-09-13T08:46:12;3.08;;;0.80;;
14153;SDS011;7157;53.144;7.570;2022-09-13T08:56:24;6.38;;;0.80;;
14153;SDS011;7157;53.144;7.570;2022-09-13T09:06:35;6.90;;;1.08;;
14153;SDS011;7157;53.144;7.570;2022-09-13T09:16:40;4.47;;;1.05;;
14153;SDS011;7157;53.144;7.570;2022-09-13T09:26:48;3.22;;;0.70;;
14153;SDS011;7157;53.144;7.570;2022-09-13T09:36:53;3.55;;;0.90;;
14153;SDS011;7157;53.144;7.570;2022-09-13T09:47:03;4.10;;;0.90;;
14153;SDS011;7157;53.144;7.570;2022-09-13T09:57:10;6.07;;;0.80;;
14153;SDS011;7157;53.144;7.570;2022-09-13T10:07:22;11.55;;;0.82;;
14153;SDS011;7157;53.144;7.570;2022-09-13T10:17:29;7.75;;;1.05;;
14153;SDS011;7157;53.144;7.570;2022-09-13T10:27:32;4.25;;;0.80;;
14153;SDS011;7157;53.144;7.570;2022-09-13T10:37:40;4.20;;;0.60;;
14153;SDS011;7157;53.144;7.570;2022-09-13T10:47:45;7.25;;;1.05;;
14153;SDS011;7157;53.144;7.570;2022-09-13T10:57:53;4.68;;;0.80;;
14153;SDS011;7157;53.144;7.570;2022-09-13T11:08:04;7.70;;;1.17;;
14153;SDS011;7157;53.144;7.570;2022-09-13T11:18:31;2.50;;;0.70;;
14153;SDS011;7157;53.144;7.570;2022-09-13T11:28:53;3.45;;;0.88;;
14153;SDS011;7157;53.144;7.570;2022-09-13T11:39:11;6.78;;;1.13;;
14153;SDS011;7157;53.144;7.570;2022-09-13T11:49:35;9.10;;;0.80;;
14153;SDS011;7157;53.144;7.570;2022-09-13T11:59:48;2.75;;;0.80;;
14153;SDS011;7157;53.144;7.570;2022-09-13T12:09:56;5.60;;;0.93;;
14153;SDS011;7157;53.144;7.570;2022-09-13T12:20:10;4.43;;;0.95;;
14153;SDS011;7157;53.144;7.570;2022-09-13T12:30:17;6.05;;;0.80;;
14153;SDS011;7157;53.144;7.570;2022-09-13T12:50:54;4.07;;;0.68;;
14153;SDS011;7157;53.144;7.570;2022-09-13T13:01:09;5.17;;;0.80;;
14153;SDS011;7157;53.144;7.570;2022-09-13T13:11:16;3.67;;;0.80;;
14153;SDS011;7157;53.144;7.570;2022-09-13T13:21:32;7.10;;;1.03;;
14153;SDS011;7157;53.144;7.570;2022-09-13T13:31:39;9.45;;;1.00;;
14153;SDS011;7157;53.144;7.570;2022-09-13T13:41:49;3.65;;;0.90;;
14153;SDS011;7157;53.144;7.570;2022-09-13T14:02:35;4.30;;;0.80;;
14153;SDS011;7157;53.144;7.570;2022-09-13T14:12:47;8.63;;;1.23;;
14153;SDS011;7157;53.144;7.570;2022-09-13T14:23:11;4.85;;;0.80;;
14153;SDS011;7157;53.144;7.570;2022-09-13T14:33:20;4.68;;;1.08;;
14153;SDS011;7157;53.144;7.570;2022-09-13T14:43:32;3.03;;;0.70;;
14153;SDS011;7157;53.144;7.570;2022-09-13T14:53:35;7.88;;;0.98;;
14153;SDS011;7157;53.144;7.570;2022-09-13T15:03:40;5.40;;;0.80;;
14153;SDS011;7157;53.144;7.570;2022-09-13T15:13:44;4.88;;;1.30;;
14153;SDS011;7157;53.144;7.570;2022-09-13T15:23:49;7.45;;;1.13;;
14153;SDS011;7157;53.144;7.570;2022-09-13T15:44:15;3.83;;;0.73;;
14153;SDS011;7157;53.144;7.570;2022-09-13T15:54:17;5.20;;;0.80;;
14153;SDS011;7157;53.144;7.570;2022-09-13T16:04:24;7.40;;;1.13;;
14153;SDS011;7157;53.144;7.570;2022-09-13T16:14:26;5.88;;;0.93;;
14153;SDS011;7157;53.144;7.570;2022-09-13T16:24:31;6.28;;;0.93;;
14153;SDS011;7157;53.144;7.570;2022-09-13T16:34:34;6.35;;;1.00;;
14153;SDS011;7157;53.144;7.570;2022-09-13T16:44:38;2.20;;;0.70;;
14153;SDS011;7157;53.144;7.570;2022-09-13T16:54:41;4.65;;;0.90;;
14153;SDS011;7157;53.144;7.570;2022-09-13T17:04:47;5.55;;;0.80;;
14153;SDS011;7157;53.144;7.570;2022-09-13T17:14:50;6.95;;;0.70;;
14153;SDS011;7157;53.144;7.570;2022-09-13T17:24:56;3.75;;;0.60;;
14153;SDS011;7157;53.144;7.570;2022-09-13T17:34:59;2.15;;;0.57;;
14153;SDS011;7157;53.144;7.570;2022-09-13T17:45:03;8.98;;;1.00;;
14153;SDS011;7157;53.144;7.570;2022-09-13T17:55:07;7.63;;;0.88;;
14153;SDS011;7157;53.144;7.570;2022-09-13T18:05:11;12.05;;;1.00;;
14153;SDS011;7157;53.144;7.570;2022-09-13T18:15:14;12.43;;;1.20;;
14153;SDS011;7157;53.144;7.570;2022-09-13T18:25:18;6.28;;;1.00;;
14153;SDS011;7157;53.144;7.570;2022-09-13T18:35:23;9.45;;;1.13;;
14153;SDS011;7157;53.144;7.570;2022-09-13T18:45:28;5.88;;;1.10;;
14153;SDS011;7157;53.144;7.570;2022-09-13T18:55:33;6.38;;;1.38;;
14153;SDS011;7157;53.144;7.570;2022-09-13T19:05:41;5.35;;;1.40;;
14153;SDS011;7157;53.144;7.570;2022-09-13T19:15:44;8.38;;;1.58;;
14153;SDS011;7157;53.144;7.570;2022-09-13T19:25:48;4.78;;;1.90;;
14153;SDS011;7157;53.144;7.570;2022-09-13T19:35:51;2.55;;;0.93;;
14153;SDS011;7157;53.144;7.570;2022-09-13T19:45:56;4.38;;;1.15;;
14153;SDS011;7157;53.144;7.570;2022-09-13T19:56:01;6.97;;;1.00;;
14153;SDS011;7157;53.144;7.570;2022-09-13T20:06:07;6.90;;;1.25;;
14153;SDS011;7157;53.144;7.570;2022-09-13T20:16:12;7.13;;;1.42;;
14153;SDS011;7157;53.144;7.570;2022-09-13T20:26:20;4.35;;;0.98;;
14153;SDS011;7157;53.144;7.570;2022-09-13T20:36:26;5.65;;;1.23;;
14153;SDS011;7157;53.144;7.570;2022-09-13T20:46:32;4.28;;;1.20;;
14153;SDS011;7157;53.144;7.570;2022-09-13T20:56:34;3.90;;;1.60;;
14153;SDS011;7157;53.144;7.570;2022-09-13T21:06:39;5.68;;;1.40;;
14153;SDS011;7157;53.144;7.570;2022-09-13T21:17:03;10.80;;;1.27;;
14153;SDS011;7157;53.144;7.570;2022-09-13T21:27:09;5.05;;;1.40;;
14153;SDS011;7157;53.144;7.570;2022-09-13T21:37:12;7.95;;;1.58;;
14153;SDS011;7157;53.144;7.570;2022-09-13T21:47:17;6.03;;;1.45;;
14153;SDS011;7157;53.144;7.570;2022-09-13T21:57:20;4.70;;;1.95;;
14153;SDS011;7157;53.144;7.570;2022-09-13T22:07:24;4.05;;;1.40;;
14153;SDS011;7157;53.144;7.570;2022-09-13T22:17:27;5.18;;;1.77;;
14153;SDS011;7157;53.144;7.570;2022-09-13T22:27:31;6.30;;;1.75;;
14153;SDS011;7157;53.144;7.570;2022-09-13T22:37:34;3.78;;;1.20;;
14153;SDS011;7157;53.144;7.570;2022-09-13T22:47:38;3.55;;;1.13;;
14153;SDS011;7157;53.144;7.570;2022-09-13T22:57:40;3.40;;;1.20;;
14153;SDS011;7157;53.144;7.570;2022-09-13T23:07:44;5.40;;;1.20;;
14153;SDS011;7157;53.144;7.570;2022-09-13T23:17:47;5.53;;;1.35;;
14153;SDS011;7157;53.144;7.570;2022-09-13T23:27:51;5.30;;;1.40;;
14153;SDS011;7157;53.144;7.570;2022-09-13T23:37:54;5.85;;;1.15;;
14153;SDS011;7157;53.144;7.570;2022-09-13T23:47:58;2.95;;;1.35;;
14153;SDS011;7157;53.144;7.570;2022-09-13T23:58:01;8.75;;;1.55;;
